createdAt,value
2019-01-25T00:00:01.809Z,97.48
2019-01-25T00:01:11.243Z,97.48
2019-01-25T00:02:20.672Z,96.91
2019-01-25T00:03:30.604Z,97
2019-01-25T00:04:40.037Z,97.1
2019-01-25T00:05:49.990Z,97.1
2019-01-25T00:06:59.931Z,97.19
2019-01-25T00:08:09.612Z,97.19
2019-01-25T00:09:19.547Z,97.38
2019-01-25T00:10:29.229Z,97.19
2019-01-25T00:11:39.181Z,97.19
2019-01-25T00:12:49.143Z,96.91
2019-01-25T00:13:58.583Z,97.57
2019-01-25T00:15:08.535Z,97.1
2019-01-25T00:16:18.479Z,97.19
2019-01-25T00:17:28.435Z,97.19
2019-01-25T00:18:38.379Z,96.91
2019-01-25T00:19:48.326Z,97.38
2019-01-25T00:20:58.413Z,97.19
2019-01-25T00:22:08.103Z,96.91
2019-01-25T00:23:18.089Z,97
2019-01-25T00:24:27.833Z,97.1
2019-01-25T00:25:37.278Z,97.29
2019-01-25T00:26:47.238Z,97.19
2019-01-25T00:27:57.185Z,97
2019-01-25T00:29:06.871Z,97.19
2019-01-25T00:30:16.824Z,97.57
2019-01-25T00:31:26.532Z,97.48
2019-01-25T00:32:38.070Z,98.23
2019-01-25T00:33:47.772Z,98.04
2019-01-25T00:34:57.457Z,97.85
2019-01-25T00:36:07.407Z,98.23
2019-01-25T00:37:17.215Z,98.71
2019-01-25T00:38:27.153Z,98.71
2019-01-25T00:39:37.088Z,98.42
2019-01-25T00:40:47.020Z,98.52
2019-01-25T00:41:56.951Z,98.61
2019-01-25T00:43:06.647Z,98.52
2019-01-25T00:44:16.587Z,98.33
2019-01-25T00:45:26.291Z,98.33
2019-01-25T00:46:36.233Z,98.61
2019-01-25T00:47:45.923Z,98.71
2019-01-25T00:48:56.599Z,98.71
2019-01-25T00:50:06.353Z,98.61
2019-01-25T00:51:16.040Z,98.9
2019-01-25T00:52:25.980Z,98.9
2019-01-25T00:53:35.659Z,98.52
2019-01-25T00:54:45.600Z,98.23
2019-01-25T00:55:55.275Z,98.14
2019-01-25T00:57:05.213Z,97.85
2019-01-25T00:58:15.176Z,97.95
2019-01-25T00:59:25.009Z,97.85
2019-01-25T01:00:34.685Z,97.67
2019-01-25T01:01:44.373Z,98.04
2019-01-25T01:02:54.317Z,97.95
2019-01-25T01:04:04.024Z,98.23
2019-01-25T01:05:13.720Z,97.95
2019-01-25T01:06:23.670Z,97.95
2019-01-25T01:07:33.607Z,97.48
2019-01-25T01:08:43.535Z,97.57
2019-01-25T01:09:53.230Z,97.38
2019-01-25T01:11:03.010Z,97.48
2019-01-25T01:12:12.956Z,98.04
2019-01-25T01:13:22.657Z,97.48
2019-01-25T01:14:32.587Z,97.19
2019-01-25T01:15:42.270Z,97.1
2019-01-25T01:16:52.199Z,97.38
2019-01-25T01:18:02.140Z,97.57
2019-01-25T01:19:11.831Z,97.67
2019-01-25T01:20:21.512Z,97.48
2019-01-25T01:21:31.454Z,97
2019-01-25T01:22:41.402Z,97.29
2019-01-25T01:23:51.090Z,97.38
2019-01-25T01:25:01.019Z,96.91
2019-01-25T01:26:10.962Z,97.38
2019-01-25T01:27:20.417Z,96.63
2019-01-25T01:28:30.349Z,96.34
2019-01-25T01:29:40.295Z,96.72
2019-01-25T01:30:49.974Z,96.63
2019-01-25T01:31:59.909Z,97.19
2019-01-25T01:33:09.844Z,97
2019-01-25T01:34:19.276Z,96.81
2019-01-25T01:35:28.952Z,96.72
2019-01-25T01:36:38.882Z,96.63
2019-01-25T01:37:48.308Z,97
2019-01-25T01:38:58.240Z,96.91
2019-01-25T01:40:07.919Z,97
2019-01-25T01:41:24.525Z,96.91
2019-01-25T01:42:34.202Z,96.91
2019-01-25T01:43:44.130Z,97.19
2019-01-25T01:44:53.571Z,96.63
2019-01-25T01:46:03.321Z,97.19
2019-01-25T01:47:13.397Z,96.81
2019-01-25T01:48:24.830Z,97.19
2019-01-25T01:49:34.524Z,96.81
2019-01-25T01:50:44.015Z,96.81
2019-01-25T01:51:53.934Z,96.53
2019-01-25T01:53:03.869Z,96.91
2019-01-25T01:54:13.832Z,96.72
2019-01-25T01:55:23.762Z,96.44
2019-01-25T01:56:33.693Z,97
2019-01-25T01:57:43.379Z,97
2019-01-25T01:58:53.073Z,97.1
2019-01-25T02:00:02.752Z,97.19
2019-01-25T02:01:12.185Z,96.63
2019-01-25T02:02:22.112Z,96.06
2019-01-25T02:03:32.047Z,96.25
2019-01-25T02:04:41.983Z,96.15
2019-01-25T02:05:52.415Z,96.63
2019-01-25T02:07:02.103Z,96.81
2019-01-25T02:08:11.532Z,96.44
2019-01-25T02:09:21.217Z,96.34
2019-01-25T02:10:32.092Z,96.06
2019-01-25T02:11:42.045Z,96.25
2019-01-25T02:12:51.963Z,96.34
2019-01-25T02:14:01.682Z,96.15
2019-01-25T02:15:11.379Z,96.68
2019-01-25T02:16:21.305Z,96.06
2019-01-25T02:17:31.228Z,96.15
2019-01-25T02:18:41.402Z,95.97
2019-01-25T02:19:51.336Z,96.53
2019-01-25T02:21:01.270Z,96.3
2019-01-25T02:22:11.215Z,96.15
2019-01-25T02:23:20.905Z,96.44
2019-01-25T02:24:30.852Z,96.53
2019-01-25T02:25:40.786Z,96.25
2019-01-25T02:26:50.722Z,96.39
2019-01-25T02:28:01.785Z,96.34
2019-01-25T02:29:11.716Z,96.2
2019-01-25T02:30:21.153Z,96.2
2019-01-25T02:31:30.914Z,96.34
2019-01-25T02:32:40.586Z,96.15
2019-01-25T02:33:50.275Z,96.39
2019-01-25T02:34:59.951Z,96.2
2019-01-25T02:36:09.869Z,96.2
2019-01-25T02:37:19.822Z,96.39
2019-01-25T02:38:29.504Z,96.2
2019-01-25T02:39:39.448Z,96.34
2019-01-25T02:40:49.137Z,95.97
2019-01-25T02:41:58.586Z,96.34
2019-01-25T02:43:08.538Z,96.2
2019-01-25T02:44:18.250Z,96.2
2019-01-25T02:45:27.955Z,96.39
2019-01-25T02:46:37.665Z,96.49
2019-01-25T02:47:47.352Z,96.2
2019-01-25T02:48:57.296Z,96.15
2019-01-25T02:50:06.979Z,96.58
2019-01-25T02:51:16.675Z,96.11
2019-01-25T02:52:26.353Z,95.78
2019-01-25T02:53:36.348Z,96.44
2019-01-25T02:54:46.016Z,96.15
2019-01-25T02:55:55.944Z,96.2
2019-01-25T02:57:05.888Z,95.97
2019-01-25T02:58:15.621Z,96.39
2019-01-25T02:59:25.549Z,96.25
2019-01-25T03:00:35.234Z,96.2
2019-01-25T03:01:44.904Z,96.72
2019-01-25T03:02:54.567Z,96.53
2019-01-25T03:04:04.531Z,96.25
2019-01-25T03:05:13.753Z,96.2
2019-01-25T03:06:23.706Z,96.53
2019-01-25T03:07:33.376Z,96.2
2019-01-25T03:08:43.076Z,96.44
2019-01-25T03:09:54.345Z,96.2
2019-01-25T03:11:04.281Z,96.34
2019-01-25T03:12:13.990Z,96.34
2019-01-25T03:13:23.916Z,96.15
2019-01-25T03:14:33.850Z,96.34
2019-01-25T03:15:43.524Z,97.29
2019-01-25T03:16:53.478Z,97.1
2019-01-25T03:18:03.371Z,97.1
2019-01-25T03:19:13.302Z,97
2019-01-25T03:20:23.244Z,96.81
2019-01-25T03:21:33.193Z,96.81
2019-01-25T03:22:42.896Z,96.72
2019-01-25T03:23:52.858Z,96.63
2019-01-25T03:25:02.794Z,96.58
2019-01-25T03:26:12.496Z,96.11
2019-01-25T03:27:22.417Z,96.34
2019-01-25T03:28:32.357Z,96.2
2019-01-25T03:29:42.299Z,96.39
2019-01-25T03:30:52.247Z,96.68
2019-01-25T03:32:02.190Z,96.49
2019-01-25T03:33:12.052Z,96.2
2019-01-25T03:34:22.032Z,96.15
2019-01-25T03:35:31.755Z,96.44
2019-01-25T03:36:41.707Z,96.39
2019-01-25T03:37:51.426Z,96.3
2019-01-25T03:39:01.364Z,96.39
2019-01-25T03:40:11.275Z,96.39
2019-01-25T03:41:20.978Z,96.49
2019-01-25T03:42:30.677Z,96.01
2019-01-25T03:43:40.111Z,96.01
2019-01-25T03:44:50.068Z,95.83
2019-01-25T03:45:59.750Z,96.2
2019-01-25T03:47:09.269Z,96.01
2019-01-25T03:48:19.219Z,95.64
2019-01-25T03:49:28.687Z,95.54
2019-01-25T03:50:38.385Z,95.64
2019-01-25T03:51:48.354Z,95.54
2019-01-25T03:52:58.049Z,95.17
2019-01-25T03:54:07.763Z,95.83
2019-01-25T03:55:17.704Z,95.83
2019-01-25T03:56:27.654Z,95.97
2019-01-25T03:57:37.583Z,96.2
2019-01-25T03:58:47.275Z,95.83
2019-01-25T03:59:57.206Z,95.26
2019-01-25T04:01:07.147Z,96.2
2019-01-25T04:02:17.111Z,95.64
2019-01-25T04:03:27.056Z,95.83
2019-01-25T04:04:36.757Z,95.83
2019-01-25T04:05:46.437Z,95.73
2019-01-25T04:06:55.896Z,96.11
2019-01-25T04:08:05.577Z,96.58
2019-01-25T04:09:15.501Z,96.2
2019-01-25T04:10:25.444Z,96.3
2019-01-25T04:11:35.131Z,96.49
2019-01-25T04:12:44.918Z,96.58
2019-01-25T04:13:54.864Z,96.15
2019-01-25T04:15:04.790Z,96.63
2019-01-25T04:16:14.541Z,96.06
2019-01-25T04:17:24.241Z,96.34
2019-01-25T04:18:34.176Z,96.77
2019-01-25T04:19:44.129Z,96.44
2019-01-25T04:20:53.296Z,97.19
2019-01-25T04:22:03.237Z,96.68
2019-01-25T04:23:12.924Z,96.58
2019-01-25T04:24:22.855Z,96.58
2019-01-25T04:25:32.798Z,97.24
2019-01-25T04:26:42.762Z,96.86
2019-01-25T04:27:52.463Z,96.77
2019-01-25T04:29:02.427Z,96.11
2019-01-25T04:30:12.109Z,96.63
2019-01-25T04:31:22.114Z,96.15
2019-01-25T04:32:32.061Z,96.44
2019-01-25T04:33:41.999Z,96.63
2019-01-25T04:34:51.451Z,96.53
2019-01-25T04:36:01.390Z,96.63
2019-01-25T04:37:11.330Z,96.34
2019-01-25T04:38:21.022Z,96.53
2019-01-25T04:39:30.942Z,97
2019-01-25T04:40:40.384Z,97.1
2019-01-25T04:41:50.333Z,97.05
2019-01-25T04:42:59.510Z,96.01
2019-01-25T04:44:09.305Z,96.53
2019-01-25T04:45:18.982Z,96.34
2019-01-25T04:46:28.671Z,96.06
2019-01-25T04:47:38.355Z,96.53
2019-01-25T04:48:48.059Z,96.34
2019-01-25T04:49:58.023Z,96.39
2019-01-25T04:51:07.714Z,96.2
2019-01-25T04:52:17.421Z,96.58
2019-01-25T04:53:27.377Z,96.34
2019-01-25T04:54:37.163Z,96.39
2019-01-25T04:55:46.850Z,96.15
2019-01-25T04:56:56.294Z,95.92
2019-01-25T04:58:06.235Z,96.15
2019-01-25T04:59:16.167Z,96.34
2019-01-25T05:00:26.137Z,96.72
2019-01-25T05:01:36.083Z,97
2019-01-25T05:02:46.012Z,97.29
2019-01-25T05:03:56.259Z,97.1
2019-01-25T05:05:05.684Z,97.95
2019-01-25T05:06:15.121Z,98.33
2019-01-25T05:07:25.071Z,98.14
2019-01-25T05:08:35.012Z,98.42
2019-01-25T05:09:44.450Z,98.99
2019-01-25T05:10:54.457Z,98.9
2019-01-25T05:12:04.408Z,98.71
2019-01-25T05:13:14.339Z,98.52
2019-01-25T05:14:24.271Z,98.71
2019-01-25T05:15:33.996Z,98.9
2019-01-25T05:16:43.947Z,99.37
2019-01-25T05:17:53.908Z,99.55
2019-01-25T05:19:03.857Z,99.18
2019-01-25T05:20:13.799Z,99.37
2019-01-25T05:21:23.487Z,99.55
2019-01-25T05:22:32.736Z,99.37
2019-01-25T05:23:42.679Z,99.46
2019-01-25T05:24:52.621Z,99.55
2019-01-25T05:26:02.313Z,99.55
2019-01-25T05:27:12.256Z,99.27
2019-01-25T05:28:22.199Z,99.55
2019-01-25T05:29:32.143Z,99.65
2019-01-25T05:30:42.083Z,99.46
2019-01-25T05:31:52.023Z,99.55
2019-01-25T05:33:01.450Z,99.55
2019-01-25T05:34:11.399Z,99.37
2019-01-25T05:35:21.105Z,99.37
2019-01-25T05:36:31.125Z,99.08
2019-01-25T05:37:40.813Z,99.55
2019-01-25T05:38:50.750Z,99.74
2019-01-25T05:40:00.193Z,99.99
2019-01-25T05:41:10.138Z,99.99
2019-01-25T05:42:20.091Z,99.99
2019-01-25T05:43:30.033Z,99.99
2019-01-25T05:44:39.979Z,99.99
2019-01-25T05:45:49.936Z,99.99
2019-01-25T05:46:59.619Z,99.99
2019-01-25T05:48:10.473Z,99.99
2019-01-25T05:49:20.265Z,99.99
2019-01-25T05:50:29.974Z,99.99
2019-01-25T05:51:39.667Z,99.99
2019-01-25T05:52:49.359Z,99.99
2019-01-25T05:53:59.037Z,99.99
2019-01-25T05:55:08.959Z,99.99
2019-01-25T05:56:18.759Z,99.99
2019-01-25T05:57:28.442Z,99.99
2019-01-25T05:58:38.364Z,99.99
2019-01-25T05:59:48.291Z,99.99
2019-01-25T06:00:58.224Z,99.99
2019-01-25T06:02:08.181Z,99.99
2019-01-25T06:03:18.123Z,99.99
2019-01-25T06:04:28.054Z,99.99
2019-01-25T06:05:37.495Z,99.99
2019-01-25T06:06:47.433Z,99.99
2019-01-25T06:07:57.109Z,99.99
2019-01-25T06:09:06.807Z,99.99
2019-01-25T06:10:16.478Z,99.99
2019-01-25T06:11:25.915Z,99.99
2019-01-25T06:12:43.026Z,99.99
2019-01-25T06:13:53.265Z,99.99
2019-01-25T06:15:03.232Z,99.99
2019-01-25T06:16:12.936Z,99.99
2019-01-25T06:17:22.895Z,99.99
2019-01-25T06:18:32.871Z,99.99
2019-01-25T06:19:42.693Z,99.99
2019-01-25T06:20:52.665Z,99.99
2019-01-25T06:22:02.651Z,99.99
2019-01-25T06:23:12.583Z,99.99
2019-01-25T06:24:22.571Z,99.99
2019-01-25T06:25:32.290Z,99.99
2019-01-25T06:26:42.237Z,99.99
2019-01-25T06:27:52.207Z,99.99
2019-01-25T06:29:02.135Z,99.99
2019-01-25T06:30:11.556Z,99.99
2019-01-25T06:31:22.217Z,99.99
2019-01-25T06:32:33.123Z,99.99
2019-01-25T06:33:44.252Z,99.99
2019-01-25T06:34:54.448Z,99.99
2019-01-25T06:36:04.398Z,99.99
2019-01-25T06:37:14.085Z,99.99
2019-01-25T06:38:24.161Z,99.99
2019-01-25T06:39:34.155Z,99.99
2019-01-25T06:40:43.855Z,99.99
2019-01-25T06:41:53.535Z,99.99
2019-01-25T06:43:03.234Z,99.99
2019-01-25T06:44:13.202Z,99.99
2019-01-25T06:45:22.889Z,99.99
2019-01-25T06:46:32.615Z,99.99
2019-01-25T06:47:42.282Z,99.99
2019-01-25T06:48:52.057Z,99.99
2019-01-25T06:50:01.505Z,99.99
2019-01-25T06:51:11.287Z,99.99
2019-01-25T06:52:21.473Z,99.99
2019-01-25T06:53:31.416Z,99.99
2019-01-25T06:54:40.853Z,99.99
2019-01-25T06:55:50.541Z,99.99
2019-01-25T06:57:00.466Z,99.99
2019-01-25T06:58:10.380Z,99.99
2019-01-25T06:59:20.072Z,99.99
2019-01-25T07:00:30.065Z,99.99
2019-01-25T07:01:39.563Z,99.99
2019-01-25T07:02:49.518Z,99.99
2019-01-25T07:03:59.262Z,99.99
2019-01-25T07:05:10.511Z,99.99
2019-01-25T07:06:20.194Z,99.99
2019-01-25T07:07:29.881Z,99.99
2019-01-25T07:08:39.835Z,99.99
2019-01-25T07:09:50.076Z,99.99
2019-01-25T07:11:00.079Z,99.99
2019-01-25T07:12:11.157Z,99.99
2019-01-25T07:13:21.377Z,99.99
2019-01-25T07:14:31.345Z,99.99
2019-01-25T07:15:41.279Z,99.99
2019-01-25T07:16:50.975Z,99.99
2019-01-25T07:18:00.919Z,99.99
2019-01-25T07:19:10.869Z,99.99
2019-01-25T07:20:20.814Z,99.99
2019-01-25T07:21:30.514Z,99.99
2019-01-25T07:22:40.242Z,99.99
2019-01-25T07:23:50.176Z,99.99
2019-01-25T07:25:00.177Z,99.99
2019-01-25T07:26:10.149Z,99.99
2019-01-25T07:27:19.846Z,99.99
2019-01-25T07:28:29.777Z,99.99
2019-01-25T07:29:39.828Z,99.99
2019-01-25T07:30:49.811Z,99.99
2019-01-25T07:31:59.535Z,99.99
2019-01-25T07:33:09.300Z,99.99
2019-01-25T07:34:19.269Z,99.99
2019-01-25T07:35:29.261Z,99.99
2019-01-25T07:36:39.402Z,99.99
2019-01-25T07:37:49.681Z,99.99
2019-01-25T07:38:59.548Z,99.99
2019-01-25T07:40:09.082Z,99.99
2019-01-25T07:41:18.851Z,99.99
2019-01-25T07:42:28.926Z,99.99
2019-01-25T07:43:38.967Z,99.99
2019-01-25T07:44:48.983Z,99.99
2019-01-25T07:45:58.744Z,99.99
2019-01-25T07:47:08.827Z,99.99
2019-01-25T07:48:18.438Z,99.99
2019-01-25T07:49:28.606Z,99.99
2019-01-25T07:50:38.369Z,99.99
2019-01-25T07:51:48.183Z,99.99
2019-01-25T07:52:58.047Z,99.99
2019-01-25T07:54:08.159Z,99.99
2019-01-25T07:55:18.283Z,99.99
2019-01-25T07:56:28.366Z,99.99
2019-01-25T07:57:38.415Z,99.99
2019-01-25T07:58:48.583Z,99.99
2019-01-25T07:59:58.342Z,99.99
2019-01-25T08:01:08.435Z,99.99
2019-01-25T08:02:18.204Z,99.99
2019-01-25T08:03:27.950Z,99.99
2019-01-25T08:04:37.735Z,99.99
2019-01-25T08:05:47.745Z,99.99
2019-01-25T08:06:57.600Z,99.99
2019-01-25T08:08:07.814Z,99.99
2019-01-25T08:09:17.840Z,99.99
2019-01-25T08:10:27.668Z,99.99
2019-01-25T08:11:38.403Z,99.99
2019-01-25T08:12:48.330Z,99.99
2019-01-25T08:13:57.629Z,99.99
2019-01-25T08:15:07.697Z,99.99
2019-01-25T08:16:17.549Z,99.99
2019-01-25T08:17:27.575Z,99.99
2019-01-25T08:18:37.525Z,99.99
2019-01-25T08:19:47.329Z,99.99
2019-01-25T08:20:57.126Z,99.99
2019-01-25T08:22:06.893Z,99.99
2019-01-25T08:23:16.929Z,99.99
2019-01-25T08:24:26.881Z,99.99
2019-01-25T08:25:36.694Z,99.99
2019-01-25T08:26:47.138Z,99.99
2019-01-25T08:27:57.076Z,99.99
2019-01-25T08:29:06.936Z,99.99
2019-01-25T08:30:16.830Z,99.99
2019-01-25T08:31:26.779Z,99.99
2019-01-25T08:32:36.906Z,99.99
2019-01-25T08:33:46.894Z,99.99
2019-01-25T08:34:56.958Z,99.99
2019-01-25T08:36:06.493Z,99.99
2019-01-25T08:37:16.327Z,99.99
2019-01-25T08:38:26.504Z,99.99
2019-01-25T08:39:36.336Z,99.99
2019-01-25T08:40:46.125Z,99.99
2019-01-25T08:41:56.038Z,99.99
2019-01-25T08:43:06.117Z,99.99
2019-01-25T08:44:16.725Z,99.99
2019-01-25T08:45:26.740Z,99.99
2019-01-25T08:46:36.845Z,99.99
2019-01-25T08:47:46.816Z,99.99
2019-01-25T08:48:56.631Z,99.99
2019-01-25T08:50:06.609Z,99.99
2019-01-25T08:51:16.642Z,99.99
2019-01-25T08:52:26.459Z,99.99
2019-01-25T08:53:36.649Z,99.99
2019-01-25T08:54:48.059Z,99.99
2019-01-25T08:55:58.015Z,99.99
2019-01-25T08:57:08.078Z,99.99
2019-01-25T08:58:17.881Z,99.99
2019-01-25T08:59:27.726Z,99.99
2019-01-25T09:00:37.724Z,99.99
2019-01-25T09:01:47.678Z,99.99
2019-01-25T09:02:57.639Z,99.99
2019-01-25T09:04:07.335Z,99.99
2019-01-25T09:05:16.791Z,99.99
2019-01-25T09:06:26.827Z,99.99
2019-01-25T09:07:36.282Z,99.99
2019-01-25T09:08:46.219Z,99.99
2019-01-25T09:09:55.922Z,99.99
2019-01-25T09:11:05.646Z,99.99
2019-01-25T09:12:15.347Z,99.99
2019-01-25T09:13:30.457Z,99.99
2019-01-25T09:14:40.181Z,99.99
2019-01-25T09:15:49.955Z,99.99
2019-01-25T09:16:59.898Z,99.99
2019-01-25T09:18:09.864Z,99.99
2019-01-25T09:19:19.788Z,99.99
2019-01-25T09:20:29.718Z,99.99
2019-01-25T09:21:39.658Z,99.99
2019-01-25T09:22:49.594Z,99.99
2019-01-25T09:23:59.544Z,99.99
2019-01-25T09:25:09.262Z,99.99
2019-01-25T09:26:18.733Z,99.99
2019-01-25T09:27:28.680Z,99.99
2019-01-25T09:28:38.644Z,99.99
2019-01-25T09:29:48.355Z,99.99
2019-01-25T09:30:58.101Z,99.99
2019-01-25T09:32:08.048Z,99.99
2019-01-25T09:33:17.749Z,98.33
2019-01-25T09:34:27.971Z,97.58
2019-01-25T09:35:37.407Z,96.16
2019-01-25T09:36:47.357Z,96.63
2019-01-25T09:37:57.302Z,94.93
2019-01-25T09:39:07.230Z,94.84
2019-01-25T09:40:17.161Z,94.18
2019-01-25T09:41:27.099Z,94.03
2019-01-25T09:42:36.792Z,92.9
2019-01-25T09:43:46.748Z,91.77
2019-01-25T09:44:56.709Z,92.43
2019-01-25T09:46:06.660Z,93.28
2019-01-25T09:47:16.596Z,92.43
2019-01-25T09:48:26.540Z,92.71
2019-01-25T09:49:36.482Z,93.66
2019-01-25T09:50:52.649Z,94.22
2019-01-25T09:52:02.875Z,94.41
2019-01-25T09:53:12.817Z,93.56
2019-01-25T09:54:22.823Z,93.28
2019-01-25T09:55:32.271Z,94.03
2019-01-25T09:56:41.976Z,93.94
2019-01-25T09:57:51.422Z,93.37
2019-01-25T09:59:01.377Z,94.98
2019-01-25T10:00:11.079Z,95.83
2019-01-25T10:01:20.266Z,94.98
2019-01-25T10:02:30.225Z,94.13
2019-01-25T10:03:39.936Z,92.85
2019-01-25T10:04:49.950Z,92
2019-01-25T10:06:01.608Z,92.29
2019-01-25T10:07:11.310Z,92.66
2019-01-25T10:08:21.018Z,93.23
2019-01-25T10:09:30.975Z,92.33
2019-01-25T10:10:40.666Z,91.06
2019-01-25T10:11:50.370Z,91.01
2019-01-25T10:13:00.357Z,91.44
2019-01-25T10:14:10.148Z,91.53
2019-01-25T10:15:20.090Z,91.63
2019-01-25T10:16:31.430Z,92.19
2019-01-25T10:17:41.138Z,91.44
2019-01-25T10:18:50.833Z,91.91
2019-01-25T10:20:00.557Z,92
2019-01-25T10:21:10.486Z,92
2019-01-25T10:22:20.455Z,91.96
2019-01-25T10:23:30.417Z,91.58
2019-01-25T10:24:44.129Z,91.53
2019-01-25T10:25:54.088Z,91.15
2019-01-25T10:27:03.793Z,91.15
2019-01-25T10:28:13.738Z,89.17
2019-01-25T10:29:23.446Z,87.56
2019-01-25T10:30:33.140Z,88.46
2019-01-25T10:31:43.124Z,88.56
2019-01-25T10:32:53.086Z,89.12
2019-01-25T10:34:03.475Z,87.8
2019-01-25T10:35:13.430Z,88.09
2019-01-25T10:36:22.937Z,88.75
2019-01-25T10:37:32.883Z,88.75
2019-01-25T10:38:42.602Z,87.52
2019-01-25T10:39:52.321Z,87.71
2019-01-25T10:41:02.261Z,87.71
2019-01-25T10:42:11.796Z,87.43
2019-01-25T10:43:21.500Z,88.28
2019-01-25T10:44:30.960Z,88.84
2019-01-25T10:45:40.916Z,88.84
2019-01-25T10:46:52.321Z,88.37
2019-01-25T10:48:02.726Z,88.37
2019-01-25T10:49:12.436Z,88.46
2019-01-25T10:50:22.149Z,88.84
2019-01-25T10:51:31.908Z,88.65
2019-01-25T10:52:41.719Z,88.18
2019-01-25T10:53:51.739Z,88.46
2019-01-25T10:55:01.693Z,87.99
2019-01-25T10:56:11.677Z,88.09
2019-01-25T10:57:21.378Z,87.9
2019-01-25T10:58:31.334Z,86.48
2019-01-25T10:59:41.302Z,84.59
2019-01-25T11:00:51.359Z,83.93
2019-01-25T11:02:01.151Z,83.08
2019-01-25T11:03:10.859Z,83.08
2019-01-25T11:04:20.314Z,83.55
2019-01-25T11:05:30.022Z,83.74
2019-01-25T11:06:39.494Z,84.03
2019-01-25T11:07:49.458Z,84.12
2019-01-25T11:08:59.199Z,85.44
2019-01-25T11:10:09.179Z,84.97
2019-01-25T11:11:18.895Z,84.5
2019-01-25T11:12:28.875Z,84.78
2019-01-25T11:13:38.856Z,84.78
2019-01-25T11:14:48.798Z,85.63
2019-01-25T11:15:58.543Z,85.35
2019-01-25T11:17:08.006Z,85.06
2019-01-25T11:18:17.688Z,85.01
2019-01-25T11:19:27.143Z,84.54
2019-01-25T11:20:37.116Z,82.28
2019-01-25T11:21:46.817Z,80.29
2019-01-25T11:22:56.815Z,79.35
2019-01-25T11:24:10.291Z,77.93
2019-01-25T11:25:20.242Z,77.74
2019-01-25T11:26:29.963Z,77.59
2019-01-25T11:27:39.685Z,76.93
2019-01-25T11:28:49.674Z,77.21
2019-01-25T11:29:59.631Z,77.02
2019-01-25T11:31:09.318Z,76.93
2019-01-25T11:32:19.274Z,77.4
2019-01-25T11:33:28.978Z,76.64
2019-01-25T11:34:38.675Z,75.79
2019-01-25T11:35:47.879Z,76.64
2019-01-25T11:36:57.845Z,76.51
2019-01-25T11:38:07.561Z,76.51
2019-01-25T11:39:17.298Z,76.42
2019-01-25T11:40:27.256Z,76.23
2019-01-25T11:41:37.234Z,76.14
2019-01-25T11:42:47.190Z,76.79
2019-01-25T11:43:57.140Z,77.55
2019-01-25T11:45:07.160Z,78.4
2019-01-25T11:46:17.121Z,79.16
2019-01-25T11:47:27.079Z,79.82
2019-01-25T11:48:37.062Z,79.53
2019-01-25T11:49:47.022Z,79.53
2019-01-25T11:50:56.498Z,79.63
2019-01-25T11:52:06.726Z,78.4
2019-01-25T11:53:16.891Z,77.17
2019-01-25T11:54:26.839Z,77.08
2019-01-25T11:55:36.536Z,76.7
2019-01-25T11:56:46.516Z,78.12
2019-01-25T11:57:56.495Z,78.12
2019-01-25T11:59:06.677Z,78.21
2019-01-25T12:00:16.518Z,78.4
2019-01-25T12:01:26.457Z,78.59
2019-01-25T12:02:36.152Z,78.4
2019-01-25T12:03:46.107Z,78.5
2019-01-25T12:04:55.802Z,78.68
2019-01-25T12:06:05.740Z,78.97
2019-01-25T12:07:15.686Z,79.16
2019-01-25T12:08:25.390Z,78.5
2019-01-25T12:09:35.086Z,79.16
2019-01-25T12:10:44.849Z,79.35
2019-01-25T12:11:54.800Z,79.82
2019-01-25T12:13:04.756Z,80.29
2019-01-25T12:14:21.201Z,80.85
2019-01-25T12:15:31.155Z,80.76
2019-01-25T12:16:40.844Z,81.52
2019-01-25T12:17:50.282Z,82.23
2019-01-25T12:19:00.242Z,82.99
2019-01-25T12:20:09.971Z,83.46
2019-01-25T12:21:20.716Z,83.59
2019-01-25T12:22:30.885Z,83.5
2019-01-25T12:23:41.131Z,82.89
2019-01-25T12:24:51.082Z,83.84
2019-01-25T12:26:00.766Z,84.41
2019-01-25T12:27:10.706Z,84.59
2019-01-25T12:28:20.665Z,84.31
2019-01-25T12:29:30.793Z,85.16
2019-01-25T12:30:40.868Z,85.44
2019-01-25T12:31:50.561Z,85.53
2019-01-25T12:33:00.013Z,85.91
2019-01-25T12:34:09.970Z,86.01
2019-01-25T12:35:20.239Z,87.05
2019-01-25T12:36:29.874Z,87.52
2019-01-25T12:37:39.638Z,87.99
2019-01-25T12:38:49.342Z,88.09
2019-01-25T12:39:59.337Z,88.28
2019-01-25T12:41:09.411Z,88.84
2019-01-25T12:42:19.366Z,89.4
2019-01-25T12:43:29.328Z,89.88
2019-01-25T12:44:39.279Z,90.45
2019-01-25T12:45:52.416Z,90.92
2019-01-25T12:47:02.406Z,90.64
2019-01-25T12:48:12.355Z,90.73
2019-01-25T12:49:22.311Z,91.11
2019-01-25T12:50:32.015Z,91.49
2019-01-25T12:51:42.311Z,91.11
2019-01-25T12:52:52.483Z,91.39
2019-01-25T12:54:02.190Z,91.3
2019-01-25T12:55:12.143Z,91.49
2019-01-25T12:56:22.134Z,92.05
2019-01-25T12:57:31.575Z,91.77
2019-01-25T12:58:41.641Z,91.39
2019-01-25T12:59:51.327Z,91.77
2019-01-25T13:01:01.257Z,92.05
2019-01-25T13:02:11.480Z,92.43
2019-01-25T13:03:21.453Z,91.77
2019-01-25T13:04:30.959Z,92.14
2019-01-25T13:05:40.956Z,92.33
2019-01-25T13:06:51.032Z,92.61
2019-01-25T13:08:00.717Z,93.18
2019-01-25T13:09:10.677Z,92.8
2019-01-25T13:10:20.717Z,93.09
2019-01-25T13:11:30.964Z,93.37
2019-01-25T13:12:40.658Z,92.8
2019-01-25T13:13:50.595Z,92.9
2019-01-25T13:15:00.560Z,92.71
2019-01-25T13:16:10.526Z,92.52
2019-01-25T13:17:20.211Z,92.05
2019-01-25T13:18:30.030Z,92.43
2019-01-25T13:19:39.974Z,92.43
2019-01-25T13:20:50.019Z,92.61
2019-01-25T13:21:59.709Z,92.33
2019-01-25T13:23:09.649Z,90.92
2019-01-25T13:24:19.607Z,91.11
2019-01-25T13:25:29.630Z,90.45
2019-01-25T13:26:39.655Z,90.07
2019-01-25T13:27:49.189Z,90.73
2019-01-25T13:28:59.195Z,90.92
2019-01-25T13:30:09.311Z,90.82
2019-01-25T13:31:19.275Z,91.3
2019-01-25T13:32:29.387Z,91.3
2019-01-25T13:33:39.437Z,90.73
2019-01-25T13:34:49.427Z,90.26
2019-01-25T13:35:59.535Z,90.26
2019-01-25T13:37:09.278Z,90.73
2019-01-25T13:38:19.380Z,91.11
2019-01-25T13:39:29.068Z,91.11
2019-01-25T13:40:39.018Z,90.73
2019-01-25T13:41:48.960Z,90.92
2019-01-25T13:42:58.661Z,90.73
2019-01-25T13:44:08.356Z,90.45
2019-01-25T13:45:17.795Z,90.35
2019-01-25T13:46:27.748Z,90.64
2019-01-25T13:47:37.680Z,90.92
2019-01-25T13:48:47.367Z,91.3
2019-01-25T13:49:57.062Z,92.14
2019-01-25T13:51:08.412Z,92.52
2019-01-25T13:52:17.861Z,93.28
2019-01-25T13:53:27.536Z,93.94
2019-01-25T13:54:36.970Z,94.7
2019-01-25T13:55:46.913Z,94.89
2019-01-25T13:56:56.636Z,94.51
2019-01-25T13:58:06.073Z,94.51
2019-01-25T13:59:16.025Z,93.99
2019-01-25T14:00:25.983Z,94.18
2019-01-25T14:01:37.271Z,93.23
2019-01-25T14:02:48.764Z,92.66
2019-01-25T14:03:58.762Z,92
2019-01-25T14:05:08.498Z,92.38
2019-01-25T14:06:18.203Z,91.72
2019-01-25T14:07:28.150Z,91.39
2019-01-25T14:08:38.102Z,90.92
2019-01-25T14:09:48.045Z,91.11
2019-01-25T14:10:58.011Z,91.86
2019-01-25T14:12:08.693Z,92.14
2019-01-25T14:13:18.460Z,92.05
2019-01-25T14:14:28.420Z,92.43
2019-01-25T14:15:38.365Z,92.8
2019-01-25T14:16:48.060Z,93.18
2019-01-25T14:17:58.031Z,92.8
2019-01-25T14:19:08.048Z,92.05
2019-01-25T14:20:23.133Z,92.52
2019-01-25T14:21:32.867Z,92.33
2019-01-25T14:22:42.315Z,92.33
2019-01-25T14:23:52.274Z,92.33
2019-01-25T14:25:02.210Z,92.61
2019-01-25T14:26:11.650Z,93.18
2019-01-25T14:27:21.095Z,93.09
2019-01-25T14:28:31.054Z,93.18
2019-01-25T14:29:40.510Z,93.94
2019-01-25T14:30:50.460Z,93.84
2019-01-25T14:32:00.149Z,93.56
2019-01-25T14:33:11.000Z,93.84
2019-01-25T14:34:20.687Z,93.84
2019-01-25T14:35:30.645Z,94.03
2019-01-25T14:36:40.601Z,94.89
2019-01-25T14:37:50.308Z,94.6
2019-01-25T14:39:00.251Z,95.17
2019-01-25T14:40:09.977Z,95.17
2019-01-25T14:41:19.943Z,95.45
2019-01-25T14:42:29.889Z,95.64
2019-01-25T14:43:39.834Z,95.45
2019-01-25T14:44:49.549Z,96.2
2019-01-25T14:45:59.506Z,95.64
2019-01-25T14:47:09.478Z,95.83
2019-01-25T14:48:19.459Z,96.01
2019-01-25T14:49:29.166Z,96.2
2019-01-25T14:50:38.878Z,96.58
2019-01-25T14:51:48.870Z,97.05
2019-01-25T14:52:58.862Z,97.43
2019-01-25T14:54:08.551Z,97.91
2019-01-25T14:55:18.505Z,98.28
2019-01-25T14:56:27.934Z,98.57
2019-01-25T14:57:37.884Z,98.75
2019-01-25T14:58:47.570Z,99.41
2019-01-25T14:59:57.260Z,99.13
2019-01-25T15:01:07.215Z,99.79
2019-01-25T15:02:16.976Z,99.99
2019-01-25T15:03:26.677Z,99.99
2019-01-25T15:04:36.371Z,99.99